Time;durP1;ratioP1;P1;durP2;ratioP2;P2;SDS_P1;SDS_P2;PMS_P1;PMS_P2;Temp;Humidity;BMP_temperature;BMP_pressure;BME280_temperature;BME280_humidity;BME280_pressure;Samples;Min_cycle;Max_cycle;Signal;HPM_P1;HPM_P2
2022/04/12 00:05:22;;;;;;;1.45;1.23;;;10.20;62.00;;;;;;20816893;28;20112;-73
2022/04/12 00:15:22;;;;;;;3.05;1.30;;;10.10;61.90;;;;;;20799921;28;20127;-73
2022/04/12 00:25:25;;;;;;;2.15;1.27;;;10.20;62.00;;;;;;20815235;28;20072;-73
2022/04/12 00:35:26;;;;;;;2.55;1.13;;;10.20;62.00;;;;;;20797897;28;20049;-74
2022/04/12 00:45:26;;;;;;;1.77;1.30;;;10.10;62.00;;;;;;20813261;28;20033;-73
2022/04/12 00:55:31;;;;;;;1.35;0.85;;;10.10;62.00;;;;;;20796285;28;20306;-73
2022/04/12 01:05:32;;;;;;;1.83;1.17;;;10.20;62.00;;;;;;20798710;28;20615;-73
2022/04/12 01:15:34;;;;;;;2.65;1.33;;;10.10;62.00;;;;;;20793714;28;20087;-73
2022/04/12 01:25:39;;;;;;;3.28;1.00;;;10.10;62.00;;;;;;20810900;28;20037;-73
2022/04/12 01:35:39;;;;;;;2.58;1.30;;;10.10;62.10;;;;;;20793315;28;20139;-73
2022/04/12 01:45:40;;;;;;;3.95;1.10;;;10.10;62.10;;;;;;20791998;28;20124;-73
2022/04/12 01:55:41;;;;;;;1.90;1.00;;;10.10;62.10;;;;;;20807799;28;20113;-73
2022/04/12 02:05:41;;;;;;;1.75;0.85;;;10.10;62.20;;;;;;20807569;28;20287;-74
2022/04/12 02:15:43;;;;;;;1.23;0.88;;;10.10;62.20;;;;;;20790032;28;20527;-73
2022/04/12 02:25:44;;;;;;;1.17;0.98;;;10.10;62.20;;;;;;21131621;22;20042;-76
2022/04/12 02:35:44;;;;;;;1.08;0.85;;;10.10;62.30;;;;;;20583125;28;20077;-76
2022/04/12 02:45:46;;;;;;;1.75;0.82;;;10.10;63.00;;;;;;20582451;28;20050;-75
2022/04/12 02:55:47;;;;;;;1.17;0.73;;;10.10;62.40;;;;;;20566585;28;20399;-76
2022/04/12 03:05:48;;;;;;;1.00;0.70;;;10.10;62.40;;;;;;20590499;28;20116;-76
2022/04/12 03:15:48;;;;;;;1.70;0.90;;;10.10;62.40;;;;;;20650189;28;20038;-77
2022/04/12 03:25:50;;;;;;;1.00;0.67;;;10.10;62.50;;;;;;20644396;28;20042;-77
2022/04/12 03:35:50;;;;;;;1.38;0.75;;;10.10;62.40;;;;;;20672548;28;20301;-77
2022/04/12 03:45:51;;;;;;;1.23;0.68;;;10.10;62.50;;;;;;20674879;28;20315;-77
2022/04/12 03:55:52;;;;;;;0.93;0.73;;;10.10;62.50;;;;;;20659222;28;20384;-76
2022/04/12 04:05:52;;;;;;;2.40;1.13;;;10.10;62.50;;;;;;20673066;28;20042;-77
2022/04/12 04:15:53;;;;;;;0.88;0.60;;;10.00;62.50;;;;;;20619639;28;20135;-76
2022/04/12 04:25:53;;;;;;;2.78;0.70;;;10.00;62.60;;;;;;20588702;28;20047;-77
2022/04/12 04:35:54;;;;;;;2.15;1.00;;;10.00;62.60;;;;;;20572090;28;20098;-77
2022/04/12 04:45:54;;;;;;;1.92;0.85;;;10.00;62.60;;;;;;20587752;28;20075;-76
2022/04/12 04:55:55;;;;;;;2.22;0.80;;;10.00;62.60;;;;;;20595458;28;20073;-76
2022/04/12 05:05:56;;;;;;;1.52;0.70;;;10.10;62.70;;;;;;20592374;28;20039;-77
2022/04/12 05:15:56;;;;;;;1.08;0.70;;;10.00;62.70;;;;;;20621207;28;20058;-76
2022/04/12 05:25:57;;;;;;;1.10;0.75;;;10.00;62.70;;;;;;20595011;28;20034;-73
2022/04/12 05:35:57;;;;;;;1.10;0.80;;;10.00;62.70;;;;;;20629707;28;20045;-77
2022/04/12 05:45:59;;;;;;;0.80;0.65;;;10.00;62.70;;;;;;20598493;28;20492;-76
2022/04/12 05:56:00;;;;;;;1.17;1.00;;;10.00;62.70;;;;;;20627882;28;20172;-76
2022/04/12 06:06:00;;;;;;;1.48;0.68;;;10.00;62.70;;;;;;20590628;28;20035;-75
2022/04/12 06:16:01;;;;;;;1.92;0.60;;;10.00;62.70;;;;;;20578633;28;20035;-75
2022/04/12 06:26:01;;;;;;;1.48;0.50;;;10.00;62.70;;;;;;20578290;28;20039;-76
2022/04/12 06:36:02;;;;;;;0.60;0.60;;;10.00;62.70;;;;;;20632261;28;20121;-76
2022/04/12 06:46:03;;;;;;;1.48;0.73;;;10.10;62.70;;;;;;20621585;28;20108;-75
2022/04/12 06:56:05;;;;;;;0.50;0.47;;;10.10;62.70;;;;;;20607655;28;20041;-77
2022/04/12 07:06:05;;;;;;;0.93;0.47;;;10.10;62.70;;;;;;20631384;28;20409;-79
2022/04/12 07:16:06;;;;;;;1.17;0.63;;;10.10;62.70;;;;;;20660326;28;20039;-77
2022/04/12 07:26:06;;;;;;;2.88;0.65;;;10.10;62.70;;;;;;20597407;28;20049;-81
2022/04/12 07:36:09;;;;;;;1.15;0.68;;;10.10;62.70;;;;;;20573948;28;20050;-75
2022/04/12 07:46:10;;;;;;;1.60;0.70;;;10.10;62.70;;;;;;20613403;28;20038;-80
2022/04/12 07:56:12;;;;;;;1.38;0.57;;;10.10;62.70;;;;;;20614042;28;20076;-76
2022/04/12 08:06:13;;;;;;;2.35;0.68;;;10.20;62.70;;;;;;20638203;28;20392;-77
2022/04/12 08:16:15;;;;;;;0.73;0.60;;;10.10;63.30;;;;;;20603555;28;20045;-76
2022/04/12 08:26:16;;;;;;;1.42;0.38;;;10.20;62.60;;;;;;20571388;28;20046;-77
2022/04/12 08:36:20;;;;;;;0.93;0.52;;;10.20;62.60;;;;;;20588995;28;20039;-77
2022/04/12 08:46:20;;;;;;;0.52;0.43;;;10.20;62.60;;;;;;20591094;28;20369;-75
2022/04/12 08:56:21;;;;;;;0.45;0.45;;;10.20;62.60;;;;;;20650949;28;20088;-76
2022/04/12 09:06:21;;;;;;;1.65;0.40;;;10.30;62.60;;;;;;20628116;28;20038;-75
2022/04/12 09:16:22;;;;;;;0.40;0.40;;;10.20;62.50;;;;;;20649847;28;20042;-77
2022/04/12 09:26:27;;;;;;;1.10;0.30;;;10.30;62.50;;;;;;20614033;28;20081;-78
2022/04/12 09:36:34;;;;;;;0.77;0.40;;;10.30;62.50;;;;;;20587121;28;20057;-77
2022/04/12 09:46:35;;;;;;;;;;;10.40;62.50;;;;;;20621271;28;20077;-75
2022/04/12 09:56:40;;;;;;;0.65;0.40;;;10.30;62.40;;;;;;20646957;28;19965;-86
2022/04/12 10:06:45;;;;;;;1.15;0.60;;;10.40;62.50;;;;;;20605068;28;20040;-86
2022/04/12 10:16:46;;;;;;;1.08;0.30;;;10.40;62.50;;;;;;20648824;28;20552;-81
2022/04/12 10:26:47;;;;;;;2.58;0.57;;;10.40;62.50;;;;;;20628880;28;20066;-84
2022/04/12 10:37:04;;;;;;;1.08;0.47;;;10.40;62.50;;;;;;20585940;28;20409;-74
2022/04/12 10:47:05;;;;;;;0.70;0.43;;;10.40;62.40;;;;;;20577502;28;20039;-75
2022/04/12 10:57:18;;;;;;;1.90;0.52;;;10.50;62.40;;;;;;20628444;28;20042;-79
2022/04/12 11:07:29;;;;;;;10.82;0.70;;;10.50;62.50;;;;;;20659770;28;20672;-75
2022/04/12 11:17:35;;;;;;;0.75;0.45;;;10.50;62.40;;;;;;20630709;28;20477;-80
2022/04/12 11:27:38;;;;;;;2.03;0.57;;;10.50;62.40;;;;;;20578248;28;20496;-81
2022/04/12 11:37:39;;;;;;;0.30;0.30;;;10.50;62.50;;;;;;20587985;28;20576;-81
2022/04/12 11:47:44;;;;;;;0.85;0.38;;;10.50;62.40;;;;;;20563480;28;20042;-82
2022/04/12 11:57:48;;;;;;;0.88;0.50;;;10.50;62.40;;;;;;20598369;28;20125;-83
2022/04/12 12:07:48;;;;;;;1.17;0.45;;;10.60;62.40;;;;;;20640840;28;20050;-84
2022/04/12 12:17:51;;;;;;;0.88;0.68;;;10.60;62.40;;;;;;20657189;28;20484;-75
2022/04/12 12:27:54;;;;;;;0.30;0.20;;;10.60;62.40;;;;;;20595621;28;20563;-75
2022/04/12 12:38:15;;;;;;;0.90;0.30;;;10.60;62.40;;;;;;20569543;28;20038;-75
2022/04/12 12:48:16;;;;;;;0.47;0.30;;;10.60;62.40;;;;;;20569082;28;20669;-75
2022/04/12 12:58:20;;;;;;;0.47;0.30;;;10.60;62.40;;;;;;20615415;28;20069;-72
2022/04/12 13:08:28;;;;;;;1.30;0.43;;;10.70;62.40;;;;;;20634651;28;20038;-80
2022/04/12 13:18:29;;;;;;;0.52;0.30;;;10.70;62.40;;;;;;20636684;28;20042;-82
2022/04/12 13:28:30;;;;;;;1.73;0.73;;;10.70;62.40;;;;;;20633544;28;20065;-78
2022/04/12 13:38:30;;;;;;;0.88;0.70;;;10.80;62.50;;;;;;20615375;28;20294;-79
2022/04/12 13:48:32;;;;;;;1.80;0.80;;;10.80;62.40;;;;;;20615881;28;20041;-78
2022/04/12 13:58:33;;;;;;;0.75;0.38;;;10.90;62.40;;;;;;20664231;28;20058;-78
2022/04/12 14:08:35;;;;;;;1.40;0.45;;;10.90;62.40;;;;;;20646426;28;20397;-78
2022/04/12 14:18:35;;;;;;;1.75;0.52;;;10.90;62.30;;;;;;20628297;28;20042;-78
2022/04/12 14:28:36;;;;;;;1.02;0.50;;;11.00;62.20;;;;;;20661894;28;20084;-77
2022/04/12 14:38:37;;;;;;;1.08;0.35;;;11.00;62.10;;;;;;20644593;28;20041;-77
2022/04/12 14:48:37;;;;;;;0.38;0.10;;;11.10;62.00;;;;;;20644103;28;20038;-77
2022/04/12 14:58:38;;;;;;;3.00;0.60;;;11.30;62.00;;;;;;20660948;28;20042;-78
2022/04/12 15:08:39;;;;;;;3.30;0.30;;;11.40;61.80;;;;;;20627536;28;20061;-79
2022/04/12 15:18:40;;;;;;;0.35;0.25;;;11.40;61.70;;;;;;20642804;28;20191;-79
2022/04/12 15:28:41;;;;;;;0.70;0.35;;;11.40;61.60;;;;;;20649494;28;20042;-79
2022/04/12 15:38:43;;;;;;;0.63;0.47;;;11.50;61.60;;;;;;20642296;28;20038;-79
2022/04/12 15:48:44;;;;;;;0.63;0.32;;;11.50;61.50;;;;;;20657254;28;20118;-79
2022/04/12 15:58:46;;;;;;;0.43;0.40;;;11.60;61.50;;;;;;20640394;28;20129;-78
2022/04/12 16:08:46;;;;;;;0.90;0.50;;;11.60;61.50;;;;;;20656241;28;20549;-80
2022/04/12 16:18:47;;;;;;;0.30;0.30;;;11.60;61.50;;;;;;20672376;28;20066;-79
2022/04/12 16:28:48;;;;;;;1.08;0.52;;;11.60;61.50;;;;;;20654191;28;20038;-78
2022/04/12 16:38:48;;;;;;;0.30;0.20;;;11.60;61.50;;;;;;20653091;28;20152;-79
2022/04/12 16:48:49;;;;;;;0.32;0.32;;;11.60;61.50;;;;;;20652843;28;20366;-77
2022/04/12 16:58:49;;;;;;;0.52;0.30;;;11.60;61.70;;;;;;20652586;28;20034;-78
2022/04/12 17:08:50;;;;;;;2.67;0.30;;;11.60;61.90;;;;;;20651733;28;20118;-80
2022/04/12 17:18:51;;;;;;;0.85;0.30;;;11.60;61.90;;;;;;20650095;28;20359;-77
2022/04/12 17:28:51;;;;;;;0.77;0.47;;;11.50;62.00;;;;;;20617993;28;20058;-78
2022/04/12 17:38:53;;;;;;;0.57;0.30;;;11.60;62.20;;;;;;20634990;28;20042;-77
2022/04/12 17:48:54;;;;;;;0.65;0.30;;;11.50;62.20;;;;;;20649070;28;20064;-74
2022/04/12 17:58:58;;;;;;;0.68;0.40;;;11.50;62.20;;;;;;20650825;28;20121;-80
2022/04/12 18:08:59;;;;;;;0.43;0.43;;;11.40;62.40;;;;;;20635447;28;20034;-81
2022/04/12 18:19:00;;;;;;;3.22;0.22;;;11.50;62.50;;;;;;20633971;28;20045;-80
2022/04/12 18:29:01;;;;;;;2.33;0.30;;;11.40;62.60;;;;;;20634929;28;20034;-81
2022/04/12 18:39:01;;;;;;;0.75;0.30;;;11.40;62.70;;;;;;20635778;28;20039;-81
2022/04/12 18:49:02;;;;;;;0.40;0.20;;;11.40;62.80;;;;;;20632031;28;20049;-80
2022/04/12 18:59:03;;;;;;;0.47;0.27;;;11.40;62.90;;;;;;20632497;28;20125;-80
2022/04/12 19:09:03;;;;;;;0.35;0.25;;;11.40;62.90;;;;;;20648293;28;20810;-80
2022/04/12 19:19:04;;;;;;;0.82;0.30;;;11.40;63.00;;;;;;20648690;28;20051;-80
2022/04/12 19:29:05;;;;;;;2.90;0.50;;;11.40;63.10;;;;;;20648108;28;20124;-80
2022/04/12 19:39:05;;;;;;;0.50;0.30;;;11.40;63.10;;;;;;20663129;28;20374;-82
2022/04/12 19:49:06;;;;;;;0.40;0.30;;;11.40;63.20;;;;;;20645145;28;20038;-82
2022/04/12 19:59:07;;;;;;;0.50;0.20;;;11.40;63.20;;;;;;20644508;28;20049;-81
2022/04/12 20:09:07;;;;;;;1.13;0.38;;;11.40;63.90;;;;;;20643915;28;20054;-81
2022/04/12 20:19:09;;;;;;;1.40;0.50;;;11.40;63.20;;;;;;20642693;28;20038;-81
2022/04/12 20:29:10;;;;;;;0.40;0.32;;;11.40;63.30;;;;;;20659161;28;20042;-80
2022/04/12 20:39:10;;;;;;;0.50;0.20;;;11.40;63.30;;;;;;20658043;28;20149;-80
2022/04/12 20:49:11;;;;;;;1.60;0.40;;;11.40;63.30;;;;;;20642075;28;20069;-81
2022/04/12 20:59:11;;;;;;;0.38;0.20;;;11.40;63.30;;;;;;20656112;28;20297;-80
2022/04/12 21:09:12;;;;;;;0.20;0.20;;;11.40;63.40;;;;;;20639731;28;20062;-80
2022/04/12 21:19:12;;;;;;;0.77;0.30;;;11.40;63.40;;;;;;20638661;28;20380;-81
2022/04/12 21:29:14;;;;;;;1.33;0.40;;;11.40;63.40;;;;;;20637893;28;20046;-82
2022/04/12 21:39:14;;;;;;;0.50;0.32;;;11.40;63.50;;;;;;20620120;28;20045;-81
2022/04/12 21:49:15;;;;;;;0.80;0.30;;;11.40;63.50;;;;;;20638521;28;20050;-80
2022/04/12 21:59:18;;;;;;;0.63;0.35;;;11.40;63.50;;;;;;20636573;28;20065;-80
2022/04/12 22:09:18;;;;;;;0.52;0.30;;;11.40;63.60;;;;;;20636315;28;20026;-81
2022/04/12 22:19:19;;;;;;;0.73;0.32;;;11.40;63.70;;;;;;20651221;28;20393;-82
2022/04/12 22:29:19;;;;;;;0.55;0.45;;;11.40;63.70;;;;;;20634453;28;20121;-81
2022/04/12 22:39:20;;;;;;;0.70;0.43;;;11.40;63.70;;;;;;20633775;28;20045;-80
2022/04/12 22:49:20;;;;;;;0.40;0.32;;;11.40;63.70;;;;;;20648557;28;20046;-80
2022/04/12 22:59:21;;;;;;;0.20;0.20;;;11.40;63.70;;;;;;20632276;28;20038;-79
2022/04/12 23:09:21;;;;;;;0.93;0.40;;;11.40;63.70;;;;;;20632873;28;20108;-82
2022/04/12 23:19:24;;;;;;;0.52;0.30;;;11.40;63.70;;;;;;20648128;28;20030;-80
2022/04/12 23:29:25;;;;;;;0.55;0.38;;;11.40;63.70;;;;;;20632609;28;20129;-82
2022/04/12 23:39:25;;;;;;;2.67;0.77;;;11.40;63.70;;;;;;20615110;28;20043;-80
2022/04/12 23:49:26;;;;;;;0.63;0.40;;;11.40;63.70;;;;;;20622100;28;20061;-81
2022/04/12 23:59:26;;;;;;;0.63;0.40;;;11.40;64.40;;;;;;20661069;28;20308;-80
